createdAt,value
2019-05-23T00:00:20.988Z,0
2019-05-23T00:01:22.041Z,0
2019-05-23T00:02:21.102Z,0
2019-05-23T00:03:21.160Z,0
2019-05-23T00:04:21.228Z,0
2019-05-23T00:05:21.325Z,0
2019-05-23T00:06:21.384Z,0
2019-05-23T00:07:21.451Z,0
2019-05-23T00:08:21.564Z,0
2019-05-23T00:09:21.568Z,0
2019-05-23T00:10:21.666Z,0
2019-05-23T00:11:21.749Z,0
2019-05-23T00:12:21.851Z,0
2019-05-23T00:13:22.003Z,0
2019-05-23T00:14:22.059Z,0
2019-05-23T00:15:23.194Z,0
2019-05-23T00:16:22.255Z,0
2019-05-23T00:17:22.281Z,0
2019-05-23T00:18:22.326Z,0
2019-05-23T00:19:23.396Z,0
2019-05-23T00:20:22.491Z,0
2019-05-23T00:21:22.575Z,0
2019-05-23T00:22:23.633Z,0
2019-05-23T00:23:22.769Z,0
2019-05-23T00:24:22.890Z,0
2019-05-23T00:25:23.893Z,0
2019-05-23T00:26:22.986Z,0
2019-05-23T00:27:23.075Z,0
2019-05-23T00:28:23.134Z,0
2019-05-23T00:29:23.187Z,0
2019-05-23T00:30:24.250Z,0
2019-05-23T00:31:23.557Z,0
2019-05-23T00:32:23.445Z,0
2019-05-23T00:33:23.507Z,0
2019-05-23T00:34:23.565Z,0
2019-05-23T00:35:23.642Z,0
2019-05-23T00:36:23.754Z,0
2019-05-23T00:37:24.823Z,0
2019-05-23T00:38:23.907Z,0
2019-05-23T00:39:24.120Z,0
2019-05-23T00:40:24.021Z,0
2019-05-23T00:41:24.109Z,0
2019-05-23T00:42:25.157Z,0
2019-05-23T00:43:24.222Z,0
2019-05-23T00:44:25.320Z,0
2019-05-23T00:45:24.402Z,0
2019-05-23T00:46:24.511Z,0
2019-05-23T00:47:24.593Z,0
2019-05-23T00:48:24.682Z,0
2019-05-23T00:49:24.785Z,0
2019-05-23T00:50:24.809Z,0
2019-05-23T00:51:24.868Z,0
2019-05-23T00:52:24.968Z,0
2019-05-23T00:53:26.041Z,0
2019-05-23T00:54:25.110Z,0
2019-05-23T00:55:25.190Z,0
2019-05-23T00:56:25.242Z,0
2019-05-23T00:57:25.334Z,0
2019-05-23T00:58:25.396Z,0
2019-05-23T00:59:27.339Z,0
2019-05-23T01:00:25.497Z,0
2019-05-23T01:01:25.592Z,0
2019-05-23T01:02:26.667Z,0
2019-05-23T01:03:25.715Z,0
2019-05-23T01:04:25.786Z,0
2019-05-23T01:05:25.850Z,0
2019-05-23T01:06:25.894Z,0
2019-05-23T01:07:26.022Z,0
2019-05-23T01:08:26.086Z,0
2019-05-23T01:09:26.229Z,0
2019-05-23T01:10:26.308Z,0
2019-05-23T01:11:26.380Z,0
2019-05-23T01:12:26.469Z,0
2019-05-23T01:13:26.534Z,0
2019-05-23T01:14:26.625Z,0
2019-05-23T01:15:26.703Z,0
2019-05-23T01:16:26.779Z,0
2019-05-23T01:17:26.935Z,0
2019-05-23T01:18:26.991Z,0
2019-05-23T01:19:27.105Z,0
2019-05-23T01:20:27.161Z,0
2019-05-23T01:21:27.218Z,0
2019-05-23T01:22:27.318Z,0
2019-05-23T01:23:27.298Z,0
2019-05-23T01:24:28.348Z,0
2019-05-23T01:25:27.494Z,0
2019-05-23T01:26:27.563Z,0
2019-05-23T01:27:28.702Z,0
2019-05-23T01:28:27.822Z,0
2019-05-23T01:29:37.050Z,0
2019-05-23T01:30:27.914Z,0
2019-05-23T01:31:27.967Z,0
2019-05-23T01:32:28.067Z,0
2019-05-23T01:33:28.227Z,0
2019-05-23T01:34:28.133Z,0
2019-05-23T01:35:28.201Z,0
2019-05-23T01:36:29.252Z,0
2019-05-23T01:37:28.309Z,0
2019-05-23T01:38:28.398Z,0
2019-05-23T01:39:28.458Z,0
2019-05-23T01:40:28.524Z,0
2019-05-23T01:41:28.596Z,0
2019-05-23T01:42:28.688Z,0
2019-05-23T01:43:28.783Z,0
2019-05-23T01:44:29.831Z,0
2019-05-23T01:45:28.893Z,0
2019-05-23T01:46:28.950Z,0
2019-05-23T01:47:29.013Z,0
2019-05-23T01:48:29.134Z,0
2019-05-23T01:49:29.195Z,0
2019-05-23T01:50:30.276Z,0
2019-05-23T01:51:29.372Z,0
2019-05-23T01:52:30.420Z,0
2019-05-23T01:53:29.538Z,0
2019-05-23T01:54:29.620Z,0
2019-05-23T01:55:29.692Z,0
2019-05-23T01:56:29.842Z,0
2019-05-23T01:57:29.912Z,0
2019-05-23T01:58:30.038Z,0
2019-05-23T01:59:30.100Z,0
2019-05-23T02:00:30.166Z,0
2019-05-23T02:01:30.223Z,0
2019-05-23T02:02:30.279Z,0
2019-05-23T02:03:30.371Z,0
2019-05-23T02:04:30.448Z,0
2019-05-23T02:05:30.520Z,0
2019-05-23T02:06:30.576Z,0
2019-05-23T02:07:30.644Z,0
2019-05-23T02:08:30.914Z,0
2019-05-23T02:09:30.840Z,0
2019-05-23T02:10:30.908Z,0
2019-05-23T02:11:30.970Z,0
2019-05-23T02:12:31.042Z,0
2019-05-23T02:13:31.097Z,0
2019-05-23T02:14:31.170Z,0
2019-05-23T02:15:31.249Z,0
2019-05-23T02:16:31.316Z,0
2019-05-23T02:17:31.384Z,0
2019-05-23T02:18:32.434Z,0
2019-05-23T02:19:31.575Z,0
2019-05-23T02:20:31.645Z,0
2019-05-23T02:21:31.795Z,0
2019-05-23T02:22:31.859Z,0
2019-05-23T02:23:31.903Z,0
2019-05-23T02:24:32.006Z,0
2019-05-23T02:25:32.074Z,0
2019-05-23T02:26:32.141Z,0
2019-05-23T02:27:32.201Z,0
2019-05-23T02:28:32.342Z,0
2019-05-23T02:29:32.785Z,0
2019-05-23T02:30:35.164Z,0
2019-05-23T02:31:32.572Z,0
2019-05-23T02:32:32.626Z,0
2019-05-23T02:33:32.687Z,0
2019-05-23T02:34:32.782Z,0
2019-05-23T02:35:32.857Z,0
2019-05-23T02:36:32.962Z,0
2019-05-23T02:37:33.047Z,0
2019-05-23T02:38:33.096Z,0
2019-05-23T02:39:33.179Z,0
2019-05-23T02:40:33.234Z,0
2019-05-23T02:41:33.300Z,0
2019-05-23T02:42:33.347Z,0
2019-05-23T02:43:33.405Z,1
2019-05-23T02:44:33.507Z,1
2019-05-23T02:45:33.569Z,1
2019-05-23T02:46:33.632Z,0
2019-05-23T02:47:33.690Z,0
2019-05-23T02:48:33.701Z,1
2019-05-23T02:49:33.789Z,1
2019-05-23T02:50:33.862Z,1
2019-05-23T02:51:33.928Z,1
2019-05-23T02:52:33.997Z,2
2019-05-23T02:53:34.066Z,1
2019-05-23T02:54:37.261Z,2
2019-05-23T02:55:34.236Z,2
2019-05-23T02:56:34.291Z,2
2019-05-23T02:57:34.336Z,3
2019-05-23T02:58:35.378Z,3
2019-05-23T02:59:34.431Z,4
2019-05-23T03:00:52.331Z,4
2019-05-23T03:01:34.517Z,5
2019-05-23T03:02:34.602Z,6
2019-05-23T03:03:34.646Z,6
2019-05-23T03:04:34.740Z,8
2019-05-23T03:05:34.896Z,9
2019-05-23T03:06:34.962Z,10
2019-05-23T03:07:35.069Z,12
2019-05-23T03:08:35.166Z,13
2019-05-23T03:09:35.198Z,15
2019-05-23T03:10:35.310Z,17
2019-05-23T03:11:35.370Z,20
2019-05-23T03:12:35.433Z,21
2019-05-23T03:13:35.552Z,25
2019-05-23T03:14:35.674Z,26
2019-05-23T03:15:35.766Z,29
2019-05-23T03:16:35.841Z,32
2019-05-23T03:17:35.911Z,35
2019-05-23T03:18:36.954Z,39
2019-05-23T03:19:36.023Z,42
2019-05-23T03:20:36.129Z,46
2019-05-23T03:21:36.186Z,51
2019-05-23T03:22:36.245Z,55
2019-05-23T03:23:36.308Z,61
2019-05-23T03:24:36.384Z,66
2019-05-23T03:25:36.543Z,72
2019-05-23T03:26:36.600Z,79
2019-05-23T03:27:36.689Z,84
2019-05-23T03:28:36.786Z,92
2019-05-23T03:29:36.839Z,100
2019-05-23T03:30:36.909Z,107
2019-05-23T03:31:36.984Z,117
2019-05-23T03:32:39.174Z,126
2019-05-23T03:33:37.100Z,137
2019-05-23T03:34:37.163Z,145
2019-05-23T03:35:37.199Z,157
2019-05-23T03:36:37.345Z,169
2019-05-23T03:37:37.393Z,182
2019-05-23T03:38:37.373Z,197
2019-05-23T03:39:37.511Z,210
2019-05-23T03:40:38.643Z,224
2019-05-23T03:41:37.638Z,242
2019-05-23T03:42:37.780Z,256
2019-05-23T03:43:38.750Z,275
2019-05-23T03:44:37.746Z,294
2019-05-23T03:45:39.598Z,311
2019-05-23T03:46:37.972Z,325
2019-05-23T03:47:38.027Z,352
2019-05-23T03:48:38.040Z,376
2019-05-23T03:49:38.062Z,396
2019-05-23T03:50:38.082Z,418
2019-05-23T03:51:38.095Z,440
2019-05-23T03:52:38.131Z,452
2019-05-23T03:53:38.131Z,480
2019-05-23T03:54:38.137Z,490
2019-05-23T03:55:38.144Z,513
2019-05-23T03:56:38.178Z,539
2019-05-23T03:57:38.231Z,562
2019-05-23T03:58:38.285Z,587
2019-05-23T03:59:38.286Z,594
2019-05-23T04:00:38.290Z,641
2019-05-23T04:01:47.483Z,653
2019-05-23T04:02:39.582Z,690
2019-05-23T04:03:39.980Z,720
2019-05-23T04:04:38.581Z,726
2019-05-23T04:05:38.587Z,779
2019-05-23T04:06:38.588Z,799
2019-05-23T04:07:38.618Z,817
2019-05-23T04:08:38.614Z,850
2019-05-23T04:09:38.630Z,893
2019-05-23T04:10:38.627Z,954
2019-05-23T04:11:39.789Z,923
2019-05-23T04:12:39.969Z,979
2019-05-23T04:13:38.962Z,1022
2019-05-23T04:14:38.975Z,1042
2019-05-23T04:15:39.014Z,1082
2019-05-23T04:16:39.036Z,1113
2019-05-23T04:17:39.051Z,1147
2019-05-23T04:18:39.081Z,1171
2019-05-23T04:19:39.080Z,1178
2019-05-23T04:20:39.089Z,1200
2019-05-23T04:21:39.094Z,1254
2019-05-23T04:22:39.119Z,1291
2019-05-23T04:23:39.328Z,1329
2019-05-23T04:24:39.161Z,1355
2019-05-23T04:25:39.361Z,1345
2019-05-23T04:26:39.364Z,1378
2019-05-23T04:27:39.401Z,1405
2019-05-23T04:28:39.449Z,1489
2019-05-23T04:29:39.510Z,1441
2019-05-23T04:30:39.510Z,1443
2019-05-23T04:31:39.605Z,1451
2019-05-23T04:32:40.791Z,1457
2019-05-23T04:33:39.646Z,1464
2019-05-23T04:34:39.693Z,1459
2019-05-23T04:35:39.708Z,1457
2019-05-23T04:36:39.717Z,1485
2019-05-23T04:37:39.718Z,1507
2019-05-23T04:38:40.792Z,1525
2019-05-23T04:39:39.807Z,1561
2019-05-23T04:40:39.801Z,1593
2019-05-23T04:41:39.795Z,1604
2019-05-23T04:42:39.797Z,1629
2019-05-23T04:43:39.842Z,1652
2019-05-23T04:44:43.931Z,1685
2019-05-23T04:45:40.026Z,1655
2019-05-23T04:46:40.053Z,1646
2019-05-23T04:47:40.076Z,1660
2019-05-23T04:48:40.128Z,1673
2019-05-23T04:49:40.140Z,1693
2019-05-23T04:50:40.157Z,1707
2019-05-23T04:51:40.159Z,1710
2019-05-23T04:52:40.165Z,1697
2019-05-23T04:53:40.202Z,1669
2019-05-23T04:54:40.200Z,1647
2019-05-23T04:55:40.216Z,1633
2019-05-23T04:56:40.213Z,1614
2019-05-23T04:57:40.211Z,1614
2019-05-23T04:58:40.263Z,1631
2019-05-23T04:59:40.265Z,1645
2019-05-23T05:00:40.294Z,1661
2019-05-23T05:01:40.307Z,1673
2019-05-23T05:02:40.312Z,1682
2019-05-23T05:03:40.347Z,1698
2019-05-23T05:04:40.446Z,1723
2019-05-23T05:05:40.575Z,1752
2019-05-23T05:06:40.448Z,1781
2019-05-23T05:07:40.481Z,1733
2019-05-23T05:08:40.512Z,1841
2019-05-23T05:09:40.532Z,1855
2019-05-23T05:10:40.549Z,1896
2019-05-23T05:11:40.546Z,1889
2019-05-23T05:12:40.557Z,1883
2019-05-23T05:13:40.560Z,1873
2019-05-23T05:14:40.604Z,1879
2019-05-23T05:15:40.632Z,1890
2019-05-23T05:16:40.612Z,1882
2019-05-23T05:17:40.604Z,1879
2019-05-23T05:18:40.600Z,1867
2019-05-23T05:19:40.643Z,1904
2019-05-23T05:20:40.654Z,1965
2019-05-23T05:21:40.677Z,1973
2019-05-23T05:22:40.732Z,1984
2019-05-23T05:23:40.799Z,2033
2019-05-23T05:24:40.954Z,2018
2019-05-23T05:25:40.928Z,2081
2019-05-23T05:26:40.926Z,2070
2019-05-23T05:27:40.941Z,2075
2019-05-23T05:28:40.933Z,2064
2019-05-23T05:29:40.978Z,2065
2019-05-23T05:30:41.020Z,2082
2019-05-23T05:31:41.058Z,2065
2019-05-23T05:32:45.130Z,2057
2019-05-23T05:33:41.106Z,2047
2019-05-23T05:34:41.101Z,2065
2019-05-23T05:35:41.174Z,2087
2019-05-23T05:36:41.193Z,2096
2019-05-23T05:37:41.208Z,2129
2019-05-23T05:38:41.250Z,2132
2019-05-23T05:39:41.261Z,2135
2019-05-23T05:40:41.299Z,2153
2019-05-23T05:41:41.311Z,2146
2019-05-23T05:42:41.317Z,2150
2019-05-23T05:43:41.316Z,2164
2019-05-23T05:44:41.338Z,2168
2019-05-23T05:45:41.381Z,2198
2019-05-23T05:46:41.464Z,2250
2019-05-23T05:47:41.476Z,2258
2019-05-23T05:48:41.509Z,2289
2019-05-23T05:49:42.266Z,2284
2019-05-23T05:50:41.784Z,2285
2019-05-23T05:51:41.863Z,2252
2019-05-23T05:52:41.867Z,2211
2019-05-23T05:53:41.893Z,2228
2019-05-23T05:54:41.901Z,2296
2019-05-23T05:55:41.927Z,2341
2019-05-23T05:56:41.971Z,2328
2019-05-23T05:57:41.965Z,2301
2019-05-23T05:58:41.998Z,2249
2019-05-23T05:59:42.011Z,2263
2019-05-23T06:00:42.109Z,2289
2019-05-23T06:01:42.203Z,2306
2019-05-23T06:02:42.175Z,2335
2019-05-23T06:03:43.171Z,2332
2019-05-23T06:04:42.185Z,2242
2019-05-23T06:05:42.233Z,2253
2019-05-23T06:06:42.322Z,2294
2019-05-23T06:07:42.413Z,2377
2019-05-23T06:08:42.418Z,2391
2019-05-23T06:09:42.560Z,2393
2019-05-23T06:10:42.599Z,2345
2019-05-23T06:11:42.724Z,2432
2019-05-23T06:12:42.762Z,2453
2019-05-23T06:13:42.760Z,2428
2019-05-23T06:14:46.333Z,2400
2019-05-23T06:15:42.935Z,2424
2019-05-23T06:16:42.984Z,2473
2019-05-23T06:17:43.079Z,2495
2019-05-23T06:18:43.126Z,2557
2019-05-23T06:19:43.130Z,2584
2019-05-23T06:20:43.127Z,2617
2019-05-23T06:21:44.306Z,2620
2019-05-23T06:22:43.311Z,2616
2019-05-23T06:23:43.328Z,2645
2019-05-23T06:24:48.602Z,2652
2019-05-23T06:25:43.402Z,2668
2019-05-23T06:26:43.477Z,2680
2019-05-23T06:27:43.490Z,2686
2019-05-23T06:28:43.680Z,2690
2019-05-23T06:29:43.557Z,2686
2019-05-23T06:30:43.599Z,2661
2019-05-23T06:31:43.635Z,2620
2019-05-23T06:32:43.682Z,2639
2019-05-23T06:33:43.687Z,2663
2019-05-23T06:34:43.688Z,2709
2019-05-23T06:35:43.700Z,2729
2019-05-23T06:36:43.738Z,2831
2019-05-23T06:37:43.799Z,2855
2019-05-23T06:38:43.826Z,2897
2019-05-23T06:39:44.012Z,2956
2019-05-23T06:40:43.861Z,2970
2019-05-23T06:41:43.929Z,2934
2019-05-23T06:42:44.270Z,2958
2019-05-23T06:43:43.969Z,3038
2019-05-23T06:44:44.004Z,3060
2019-05-23T06:45:43.998Z,3066
2019-05-23T06:46:45.013Z,3069
2019-05-23T06:47:44.036Z,3089
2019-05-23T06:48:45.648Z,3084
2019-05-23T06:49:44.121Z,3049
2019-05-23T06:50:44.169Z,3021
2019-05-23T06:51:44.287Z,3147
2019-05-23T06:52:44.377Z,3128
2019-05-23T06:53:44.388Z,3050
2019-05-23T06:54:44.390Z,3055
2019-05-23T06:55:44.402Z,3102
2019-05-23T06:56:44.416Z,3116
2019-05-23T06:57:44.712Z,3121
2019-05-23T06:58:44.512Z,3157
2019-05-23T06:59:44.521Z,3083
2019-05-23T07:00:44.541Z,3009
2019-05-23T07:01:44.550Z,2990
2019-05-23T07:02:44.616Z,2986
2019-05-23T07:03:44.645Z,2978
2019-05-23T07:04:44.665Z,2992
2019-05-23T07:05:44.688Z,3054
2019-05-23T07:06:44.731Z,3112
2019-05-23T07:07:44.799Z,3234
2019-05-23T07:08:44.814Z,3252
2019-05-23T07:09:44.841Z,3268
2019-05-23T07:10:44.993Z,3312
2019-05-23T07:11:44.883Z,3400
2019-05-23T07:12:44.929Z,3422
2019-05-23T07:13:44.991Z,3464
2019-05-23T07:14:44.992Z,3558
2019-05-23T07:15:45.003Z,3535
2019-05-23T07:16:45.059Z,3590
2019-05-23T07:17:45.179Z,3587
2019-05-23T07:18:45.219Z,3567
2019-05-23T07:19:45.252Z,3579
2019-05-23T07:20:45.605Z,3548
2019-05-23T07:21:45.258Z,3540
2019-05-23T07:22:45.338Z,3588
2019-05-23T07:23:45.333Z,3752
2019-05-23T07:24:57.270Z,19112
2019-05-23T07:25:46.408Z,42928
2019-05-23T07:26:45.540Z,51720
2019-05-23T07:27:46.637Z,54024
2019-05-23T07:28:45.790Z,51912
2019-05-23T07:29:45.746Z,47032
2019-05-23T07:30:45.855Z,39088
2019-05-23T07:31:46.015Z,34472
2019-05-23T07:32:46.280Z,38128
2019-05-23T07:34:00.799Z,45312
2019-05-23T07:34:47.370Z,50352
2019-05-23T07:35:46.482Z,51632
2019-05-23T07:36:46.598Z,44808
2019-05-23T07:37:46.709Z,39584
2019-05-23T07:38:46.852Z,32240
2019-05-23T07:39:46.975Z,31544
2019-05-23T07:40:47.086Z,35568
2019-05-23T07:41:47.218Z,41376
2019-05-23T07:42:47.329Z,48176
2019-05-23T07:43:47.506Z,48976
2019-05-23T07:44:48.651Z,46944
2019-05-23T07:45:47.696Z,39760
2019-05-23T07:46:47.834Z,35616
2019-05-23T07:47:47.964Z,36656
2019-05-23T07:48:48.107Z,41776
2019-05-23T07:49:48.086Z,45896
2019-05-23T07:50:48.207Z,48992
2019-05-23T07:51:48.323Z,50560
2019-05-23T07:52:48.464Z,49280
2019-05-23T07:53:48.596Z,44960
2019-05-23T07:54:48.802Z,40712
2019-05-23T07:55:48.759Z,40104
2019-05-23T07:56:48.888Z,42904
2019-05-23T07:57:49.004Z,43624
2019-05-23T07:58:49.116Z,43432
2019-05-23T07:59:49.292Z,44480
2019-05-23T08:00:49.314Z,49720
2019-05-23T08:01:49.321Z,51288
2019-05-23T08:02:50.428Z,53048
2019-05-23T08:03:49.555Z,51720
2019-05-23T08:04:49.716Z,49944
2019-05-23T08:05:49.718Z,39472
2019-05-23T08:06:49.728Z,36712
2019-05-23T08:07:49.875Z,42960
2019-05-23T08:08:49.834Z,51000
2019-05-23T08:09:49.973Z,51136
2019-05-23T08:10:50.105Z,49248
2019-05-23T08:11:50.176Z,42864
2019-05-23T08:12:50.277Z,32368
2019-05-23T08:13:50.396Z,24016
2019-05-23T08:14:50.543Z,22136
2019-05-23T08:15:50.537Z,27336
2019-05-23T08:16:50.646Z,37032
2019-05-23T08:17:50.778Z,44344
2019-05-23T08:18:50.891Z,56600
2019-05-23T08:19:50.977Z,65376
2019-05-23T08:20:51.139Z,65535
2019-05-23T08:21:51.300Z,51232
2019-05-23T08:22:51.274Z,22424
2019-05-23T08:23:51.350Z,8142
2019-05-23T08:24:51.610Z,6325
2019-05-23T08:25:51.431Z,6728
2019-05-23T08:26:51.480Z,6275
2019-05-23T08:27:51.492Z,9426
2019-05-23T08:29:11.922Z,7120
2019-05-23T08:29:52.654Z,7494
2019-05-23T08:30:52.848Z,7500
2019-05-23T08:31:51.834Z,10963
2019-05-23T08:32:51.964Z,24264
2019-05-23T08:33:52.103Z,35072
2019-05-23T08:34:52.193Z,51664
2019-05-23T08:35:52.250Z,43496
2019-05-23T08:36:52.219Z,29544
2019-05-23T08:37:52.370Z,26104
2019-05-23T08:38:52.512Z,19896
2019-05-23T08:39:52.670Z,9272
2019-05-23T08:40:52.758Z,16304
2019-05-23T08:41:52.733Z,7039
2019-05-23T08:42:52.844Z,7325
2019-05-23T08:43:52.924Z,8396
2019-05-23T08:44:52.936Z,7914
2019-05-23T08:45:52.958Z,8019
2019-05-23T08:46:53.059Z,7743
2019-05-23T08:47:53.056Z,6376
2019-05-23T08:48:53.056Z,6005
2019-05-23T08:49:53.066Z,6097
2019-05-23T08:50:53.091Z,5901
2019-05-23T08:51:53.147Z,7451
2019-05-23T08:52:53.160Z,7373
2019-05-23T08:53:53.161Z,5132
2019-05-23T08:54:53.288Z,5372
2019-05-23T08:55:53.371Z,5229
2019-05-23T08:56:53.358Z,5550
2019-05-23T08:57:53.376Z,5972
2019-05-23T08:58:53.387Z,5985
2019-05-23T08:59:53.415Z,6849
2019-05-23T09:00:53.440Z,5969
2019-05-23T09:01:53.477Z,7550
2019-05-23T09:02:53.488Z,7808
2019-05-23T09:03:53.593Z,10555
2019-05-23T09:05:04.076Z,9117
2019-05-23T09:05:53.820Z,9481
2019-05-23T09:06:53.882Z,10572
2019-05-23T09:07:53.957Z,9275
2019-05-23T09:08:53.968Z,7763
2019-05-23T09:09:54.009Z,6414
2019-05-23T09:10:54.004Z,6514
2019-05-23T09:11:54.050Z,9331
2019-05-23T09:12:54.061Z,7862
2019-05-23T09:13:54.108Z,6833
2019-05-23T09:14:54.134Z,8386
2019-05-23T09:15:54.124Z,5378
2019-05-23T09:16:54.339Z,12573
2019-05-23T09:17:54.475Z,11776
2019-05-23T09:18:54.330Z,8006
2019-05-23T09:19:54.359Z,5988
2019-05-23T09:20:54.369Z,7404
2019-05-23T09:21:57.714Z,6736
2019-05-23T09:22:54.406Z,6743
2019-05-23T09:23:54.412Z,9055
2019-05-23T09:24:54.440Z,6844
2019-05-23T09:25:54.492Z,7144
2019-05-23T09:26:54.529Z,6606
2019-05-23T09:27:54.537Z,6406
2019-05-23T09:28:54.538Z,6343
2019-05-23T09:29:54.573Z,6203
2019-05-23T09:30:54.574Z,6280
2019-05-23T09:31:54.625Z,6532
2019-05-23T09:32:54.660Z,6213
2019-05-23T09:33:54.685Z,8282
2019-05-23T09:34:54.724Z,8687
2019-05-23T09:35:55.737Z,32368
2019-05-23T09:36:54.777Z,31120
2019-05-23T09:37:54.757Z,24904
2019-05-23T09:38:54.768Z,0
2019-05-23T09:39:54.763Z,17184
2019-05-23T09:40:54.816Z,22184
2019-05-23T09:41:54.805Z,8110
2019-05-23T09:42:54.872Z,11776
2019-05-23T09:43:54.906Z,6083
2019-05-23T09:44:54.924Z,7603
2019-05-23T09:45:54.934Z,6156
2019-05-23T09:46:54.973Z,6018
2019-05-23T09:47:55.052Z,5207
2019-05-23T09:48:55.098Z,8526
2019-05-23T09:49:55.053Z,11082
2019-05-23T09:50:55.068Z,7651
2019-05-23T09:52:00.732Z,7087
2019-05-23T09:52:55.244Z,8663
2019-05-23T09:53:55.246Z,7181
2019-05-23T09:54:55.248Z,7108
2019-05-23T09:55:55.964Z,7062
2019-05-23T09:56:55.267Z,6950
2019-05-23T09:57:55.312Z,7208
2019-05-23T09:58:55.353Z,7436
2019-05-23T09:59:56.955Z,7308
2019-05-23T10:00:55.488Z,7519
2019-05-23T10:01:55.678Z,8331
2019-05-23T10:02:55.728Z,9243
2019-05-23T10:03:55.723Z,11025
2019-05-23T10:04:55.763Z,8856
2019-05-23T10:05:55.796Z,8493
2019-05-23T10:06:55.832Z,8119
2019-05-23T10:07:55.856Z,8014
2019-05-23T10:08:55.906Z,8157
2019-05-23T10:09:55.978Z,15568
2019-05-23T10:10:56.025Z,8491
2019-05-23T10:11:56.033Z,8536
2019-05-23T10:12:56.095Z,9614
2019-05-23T10:13:56.142Z,11974
2019-05-23T10:14:56.157Z,40568
2019-05-23T10:15:56.167Z,19776
2019-05-23T10:16:56.188Z,65535
2019-05-23T10:18:00.464Z,14149
2019-05-23T10:18:56.305Z,65535
2019-05-23T10:19:56.432Z,24608
2019-05-23T10:20:56.479Z,65535
2019-05-23T10:21:56.900Z,65535
2019-05-23T10:22:56.607Z,65535
2019-05-23T10:23:56.672Z,65535
2019-05-23T10:24:56.812Z,65535
2019-05-23T10:25:56.895Z,65535
2019-05-23T10:26:56.911Z,65535
2019-05-23T10:27:56.957Z,65535
2019-05-23T10:28:57.173Z,65535
2019-05-23T10:29:57.043Z,65535
2019-05-23T10:30:57.101Z,65535
2019-05-23T10:31:57.333Z,65535
2019-05-23T10:32:57.551Z,65535
2019-05-23T10:33:58.437Z,65535
2019-05-23T10:34:57.589Z,65535
2019-05-23T10:36:00.679Z,65535
2019-05-23T10:36:57.658Z,65535
2019-05-23T10:37:57.700Z,65535
2019-05-23T10:38:57.820Z,65535
2019-05-23T10:39:57.924Z,65535
2019-05-23T10:40:58.062Z,65535
2019-05-23T10:41:58.090Z,65535
2019-05-23T10:42:58.296Z,37600
2019-05-23T10:43:58.223Z,20688
2019-05-23T10:44:58.253Z,10624
2019-05-23T10:45:58.258Z,11421
2019-05-23T10:46:58.268Z,65535
2019-05-23T10:47:58.312Z,65535
2019-05-23T10:48:58.411Z,65535
2019-05-23T10:49:58.489Z,65535
2019-05-23T10:50:59.466Z,65535
2019-05-23T10:51:58.518Z,65535
2019-05-23T10:52:58.617Z,61336
2019-05-23T10:53:58.608Z,24872
2019-05-23T10:54:58.741Z,55104
2019-05-23T10:55:58.695Z,48120
2019-05-23T10:56:58.748Z,17344
2019-05-23T10:57:58.757Z,55392
2019-05-23T10:58:58.781Z,65535
2019-05-23T10:59:58.831Z,65535
2019-05-23T11:00:59.826Z,65535
2019-05-23T11:01:58.825Z,65535
2019-05-23T11:02:58.836Z,65535
2019-05-23T11:03:58.863Z,65535
2019-05-23T11:04:58.955Z,65535
2019-05-23T11:06:13.247Z,65535
2019-05-23T11:07:00.101Z,65535
2019-05-23T11:07:59.128Z,65535
2019-05-23T11:08:59.159Z,65535
2019-05-23T11:09:59.264Z,59848
2019-05-23T11:10:59.273Z,56128
2019-05-23T11:11:59.319Z,32728
2019-05-23T11:12:59.330Z,15668
2019-05-23T11:13:59.349Z,53344
2019-05-23T11:15:00.400Z,65535
2019-05-23T11:15:59.419Z,65535
2019-05-23T11:16:59.444Z,65535
2019-05-23T11:17:59.459Z,65535
2019-05-23T11:18:59.469Z,65535
2019-05-23T11:19:59.498Z,65535
2019-05-23T11:20:59.609Z,65535
2019-05-23T11:21:59.621Z,65535
2019-05-23T11:23:03.323Z,65535
2019-05-23T11:23:59.707Z,65535
2019-05-23T11:24:59.785Z,65535
2019-05-23T11:26:01.285Z,65535
2019-05-23T11:27:00.032Z,65535
2019-05-23T11:28:00.133Z,65192
2019-05-23T11:29:00.275Z,65535
2019-05-23T11:30:00.263Z,36904
2019-05-23T11:31:00.289Z,56184
2019-05-23T11:32:00.355Z,65535
2019-05-23T11:33:00.515Z,63352
2019-05-23T11:34:00.395Z,65535
2019-05-23T11:35:00.434Z,65535
2019-05-23T11:36:00.491Z,65535
2019-05-23T11:37:00.552Z,65535
2019-05-23T11:38:00.558Z,65535
2019-05-23T11:39:00.589Z,65535
2019-05-23T11:40:00.698Z,65535
2019-05-23T11:41:00.774Z,59376
2019-05-23T11:42:00.825Z,48192
2019-05-23T11:43:00.848Z,21800
2019-05-23T11:44:00.861Z,54408
2019-05-23T11:45:00.883Z,53904
2019-05-23T11:46:00.952Z,40024
2019-05-23T11:47:00.966Z,65535
2019-05-23T11:48:00.975Z,26192
2019-05-23T11:49:00.983Z,40704
2019-05-23T11:50:00.997Z,35392
2019-05-23T11:51:01.039Z,61864
2019-05-23T11:52:01.093Z,38768
2019-05-23T11:53:01.107Z,55384
2019-05-23T11:54:08.078Z,23640
2019-05-23T11:55:01.270Z,25808
2019-05-23T11:56:01.299Z,23264
2019-05-23T11:57:01.360Z,24240
2019-05-23T11:58:01.517Z,24040
2019-05-23T11:59:02.046Z,54064
2019-05-23T12:00:01.535Z,65535
2019-05-23T12:01:01.574Z,65535
2019-05-23T12:02:01.664Z,65535
2019-05-23T12:03:01.677Z,65535
2019-05-23T12:04:01.764Z,65535
2019-05-23T12:05:01.791Z,45808
2019-05-23T12:06:05.404Z,65535
2019-05-23T12:07:01.962Z,65535
2019-05-23T12:08:01.978Z,65535
2019-05-23T12:09:02.025Z,65535
2019-05-23T12:10:02.021Z,65535
2019-05-23T12:11:02.041Z,56608
2019-05-23T12:12:02.179Z,58864
2019-05-23T12:13:02.185Z,60408
2019-05-23T12:14:02.225Z,52632
2019-05-23T12:15:02.243Z,61560
2019-05-23T12:16:02.264Z,57976
2019-05-23T12:17:02.306Z,51768
2019-05-23T12:18:02.352Z,47560
2019-05-23T12:19:02.357Z,52456
2019-05-23T12:20:02.840Z,53192
2019-05-23T12:21:02.413Z,65535
2019-05-23T12:22:02.554Z,65535
2019-05-23T12:23:07.404Z,63240
2019-05-23T12:24:02.515Z,48856
2019-05-23T12:25:19.811Z,44824
2019-05-23T12:26:03.662Z,39152
2019-05-23T12:27:02.779Z,48624
2019-05-23T12:28:02.865Z,52936
2019-05-23T12:29:02.858Z,60912
2019-05-23T12:30:02.865Z,60720
2019-05-23T12:31:02.994Z,63928
2019-05-23T12:32:02.997Z,61928
2019-05-23T12:33:03.059Z,49712
2019-05-23T12:34:03.092Z,51080
2019-05-23T12:35:10.792Z,48832
2019-05-23T12:36:03.176Z,48464
2019-05-23T12:37:17.835Z,55744
2019-05-23T12:38:04.353Z,65535
2019-05-23T12:39:03.407Z,65535
2019-05-23T12:40:03.404Z,65535
2019-05-23T12:41:03.419Z,65535
2019-05-23T12:42:03.461Z,65535
2019-05-23T12:43:03.520Z,65535
2019-05-23T12:44:03.532Z,65535
2019-05-23T12:45:03.577Z,49296
2019-05-23T12:46:04.586Z,57792
2019-05-23T12:47:03.590Z,21360
2019-05-23T12:48:03.672Z,47968
2019-05-23T12:49:03.683Z,43864
2019-05-23T12:50:03.694Z,40256
2019-05-23T12:51:03.793Z,19488
2019-05-23T12:52:03.787Z,36464
2019-05-23T12:53:03.864Z,54608
2019-05-23T12:54:03.890Z,57384
2019-05-23T12:55:03.945Z,60768
2019-05-23T12:56:04.126Z,50424
2019-05-23T12:57:03.956Z,53096
2019-05-23T12:58:04.135Z,24104
2019-05-23T12:59:04.152Z,22296
2019-05-23T13:00:04.197Z,58048
2019-05-23T13:01:04.173Z,54856
2019-05-23T13:02:04.190Z,50200
2019-05-23T13:03:04.257Z,55736
2019-05-23T13:04:04.316Z,58608
2019-05-23T13:05:04.355Z,53200
2019-05-23T13:06:04.383Z,21928
2019-05-23T13:07:04.423Z,20544
2019-05-23T13:08:06.184Z,16376
2019-05-23T13:09:04.477Z,15912
2019-05-23T13:10:04.496Z,29024
2019-05-23T13:11:04.509Z,37144
2019-05-23T13:12:04.757Z,38872
2019-05-23T13:13:05.743Z,37272
2019-05-23T13:14:04.818Z,34072
2019-05-23T13:15:04.837Z,40232
2019-05-23T13:16:04.942Z,41968
2019-05-23T13:17:04.951Z,42840
2019-05-23T13:18:04.987Z,20944
2019-05-23T13:19:05.114Z,42032
2019-05-23T13:20:05.162Z,44112
2019-05-23T13:21:05.210Z,42936
2019-05-23T13:22:05.239Z,35488
2019-05-23T13:23:05.311Z,35512
2019-05-23T13:24:06.442Z,41392
2019-05-23T13:25:05.497Z,37848
2019-05-23T13:26:05.522Z,33720
2019-05-23T13:27:05.551Z,32600
2019-05-23T13:28:05.596Z,39136
2019-05-23T13:29:05.630Z,37752
2019-05-23T13:30:05.675Z,36976
2019-05-23T13:31:05.692Z,40624